createdAt,value
2018-12-15T00:03:00.000Z,99304
2018-12-15T00:08:00.000Z,99299
2018-12-15T00:13:00.000Z,99297
2018-12-15T00:18:00.000Z,99302
2018-12-15T00:23:00.000Z,99313
2018-12-15T00:28:00.000Z,99302
2018-12-15T00:33:00.000Z,99313
2018-12-15T00:38:00.000Z,99323
2018-12-15T00:43:00.000Z,99321
2018-12-15T00:48:00.000Z,99331
2018-12-15T00:53:00.000Z,99318
2018-12-15T00:58:00.000Z,99327
2018-12-15T01:03:00.000Z,99326
2018-12-15T01:08:00.000Z,99326
2018-12-15T01:13:00.000Z,99320
2018-12-15T01:18:00.000Z,99330
2018-12-15T01:23:00.000Z,99330
2018-12-15T01:28:00.000Z,99331
2018-12-15T01:33:00.000Z,99335
2018-12-15T01:38:00.000Z,99328
2018-12-15T01:43:00.000Z,99326
2018-12-15T01:48:00.000Z,99322
2018-12-15T01:53:00.000Z,99323
2018-12-15T01:58:00.000Z,99316
2018-12-15T02:03:00.000Z,99318
2018-12-15T02:08:00.000Z,99309
2018-12-15T02:13:00.000Z,99312
2018-12-15T02:18:00.000Z,99313
2018-12-15T02:23:00.000Z,99302
2018-12-15T02:28:00.000Z,99307
2018-12-15T02:33:00.000Z,99300
2018-12-15T02:38:00.000Z,99298
2018-12-15T02:43:00.000Z,99301
2018-12-15T02:48:00.000Z,99291
2018-12-15T02:53:00.000Z,99288
2018-12-15T02:58:00.000Z,99285
2018-12-15T03:03:00.000Z,99297
2018-12-15T03:08:00.000Z,99297
2018-12-15T03:13:00.000Z,99299
2018-12-15T03:18:00.000Z,99302
2018-12-15T03:23:00.000Z,99294
2018-12-15T03:28:00.000Z,99302
2018-12-15T03:33:00.000Z,99295
2018-12-15T03:38:00.000Z,99296
2018-12-15T03:43:00.000Z,99288
2018-12-15T03:48:00.000Z,99285
2018-12-15T03:53:00.000Z,99278
2018-12-15T03:58:00.000Z,99292
2018-12-15T04:03:00.000Z,99287
2018-12-15T04:08:00.000Z,99296
2018-12-15T04:13:00.000Z,99282
2018-12-15T04:18:00.000Z,99287
2018-12-15T04:23:00.000Z,99280
2018-12-15T04:28:00.000Z,99279
2018-12-15T04:33:00.000Z,99289
2018-12-15T04:38:00.000Z,99295
2018-12-15T04:43:00.000Z,99290
2018-12-15T04:48:00.000Z,99292
2018-12-15T04:53:00.000Z,99301
2018-12-15T04:58:00.000Z,99281
2018-12-15T05:03:00.000Z,99295
2018-12-15T05:08:00.000Z,99287
2018-12-15T05:13:00.000Z,99301
2018-12-15T05:18:00.000Z,99290
2018-12-15T05:23:00.000Z,99288
2018-12-15T05:28:00.000Z,99301
2018-12-15T05:34:00.000Z,99295
2018-12-15T05:39:00.000Z,99305
2018-12-15T05:44:00.000Z,99306
2018-12-15T05:49:00.000Z,99301
2018-12-15T05:54:00.000Z,99310
2018-12-15T05:59:00.000Z,99306
2018-12-15T06:04:00.000Z,99303
2018-12-15T06:09:00.000Z,99304
2018-12-15T06:14:00.000Z,99302
2018-12-15T06:19:00.000Z,99310
2018-12-15T06:24:00.000Z,99309
2018-12-15T06:29:00.000Z,99307
2018-12-15T06:34:00.000Z,99309
2018-12-15T06:39:00.000Z,99307
2018-12-15T06:44:00.000Z,99326
2018-12-15T06:49:00.000Z,99318
2018-12-15T06:54:00.000Z,99318
2018-12-15T06:59:00.000Z,99319
2018-12-15T07:04:00.000Z,99323
2018-12-15T07:09:00.000Z,99317
2018-12-15T07:14:00.000Z,99315
2018-12-15T07:19:00.000Z,99314
2018-12-15T07:24:00.000Z,99309
2018-12-15T07:29:00.000Z,99308
2018-12-15T07:34:00.000Z,99304
2018-12-15T07:39:00.000Z,99319
2018-12-15T07:44:00.000Z,99317
2018-12-15T07:49:00.000Z,99312
2018-12-15T07:54:00.000Z,99322
2018-12-15T07:59:00.000Z,99316
2018-12-15T08:04:00.000Z,99328
2018-12-15T08:09:00.000Z,99318
2018-12-15T08:14:00.000Z,99320
2018-12-15T08:19:00.000Z,99331
2018-12-15T08:24:00.000Z,99323
2018-12-15T08:29:00.000Z,99320
2018-12-15T08:34:00.000Z,99330
2018-12-15T08:39:00.000Z,99331
2018-12-15T08:44:00.000Z,99336
2018-12-15T08:49:00.000Z,99332
2018-12-15T08:54:00.000Z,99335
2018-12-15T08:59:00.000Z,99335
2018-12-15T09:04:00.000Z,99340
2018-12-15T09:09:00.000Z,99344
2018-12-15T09:14:00.000Z,99337
2018-12-15T09:19:00.000Z,99342
2018-12-15T09:24:00.000Z,99333
2018-12-15T09:29:00.000Z,99325
2018-12-15T09:34:00.000Z,99317
2018-12-15T09:39:00.000Z,99315
2018-12-15T09:44:00.000Z,99309
2018-12-15T09:49:00.000Z,99306
2018-12-15T09:54:00.000Z,99299
2018-12-15T09:59:00.000Z,99291
2018-12-15T10:04:00.000Z,99291
2018-12-15T10:09:00.000Z,99287
2018-12-15T10:14:00.000Z,99286
2018-12-15T10:19:00.000Z,99279
2018-12-15T10:24:00.000Z,99269
2018-12-15T10:29:00.000Z,99268
2018-12-15T10:34:00.000Z,99263
2018-12-15T10:39:00.000Z,99264
2018-12-15T10:44:00.000Z,99251
2018-12-15T10:49:00.000Z,99256
2018-12-15T10:54:00.000Z,99258
2018-12-15T10:59:00.000Z,99245
2018-12-15T11:04:00.000Z,99237
2018-12-15T11:09:00.000Z,99236
2018-12-15T11:14:00.000Z,99239
2018-12-15T11:19:00.000Z,99227
2018-12-15T11:24:00.000Z,99219
2018-12-15T11:29:00.000Z,99232
2018-12-15T11:34:00.000Z,99248
2018-12-15T11:39:00.000Z,99228
2018-12-15T11:45:00.000Z,99224
2018-12-15T11:50:00.000Z,99218
2018-12-15T11:55:00.000Z,99220
2018-12-15T12:00:00.000Z,99222
2018-12-15T12:05:00.000Z,99236
2018-12-15T12:10:00.000Z,99237
2018-12-15T12:15:00.000Z,99236
2018-12-15T12:20:00.000Z,99234
2018-12-15T12:25:00.000Z,99236
2018-12-15T12:30:00.000Z,99227
2018-12-15T12:35:00.000Z,99230
2018-12-15T12:40:00.000Z,99228
2018-12-15T12:45:00.000Z,99227
2018-12-15T12:50:00.000Z,99222
2018-12-15T12:55:00.000Z,99220
2018-12-15T13:00:00.000Z,99221
2018-12-15T13:05:00.000Z,99218
2018-12-15T13:10:00.000Z,99219
2018-12-15T13:15:00.000Z,99223
2018-12-15T13:20:00.000Z,99233
2018-12-15T13:25:00.000Z,99230
2018-12-15T13:30:00.000Z,99235
2018-12-15T13:35:00.000Z,99227
2018-12-15T13:40:00.000Z,99235
2018-12-15T13:45:00.000Z,99233
2018-12-15T13:50:00.000Z,99223
2018-12-15T13:55:00.000Z,99225
2018-12-15T14:00:00.000Z,99228
2018-12-15T14:05:00.000Z,99233
2018-12-15T14:10:00.000Z,99229
2018-12-15T14:15:00.000Z,99219
2018-12-15T14:20:00.000Z,99218
2018-12-15T14:25:00.000Z,99229
2018-12-15T14:30:00.000Z,99226
2018-12-15T14:35:00.000Z,99232
2018-12-15T14:40:00.000Z,99240
2018-12-15T14:45:00.000Z,99235
2018-12-15T14:50:00.000Z,99234
2018-12-15T14:55:00.000Z,99250
2018-12-15T15:00:00.000Z,99248
2018-12-15T15:05:00.000Z,99245
2018-12-15T15:10:00.000Z,99247
2018-12-15T15:15:00.000Z,99239
2018-12-15T15:20:00.000Z,99240
2018-12-15T15:25:00.000Z,99245
2018-12-15T15:30:00.000Z,99241
2018-12-15T15:35:00.000Z,99241
2018-12-15T15:40:00.000Z,99225
2018-12-15T15:45:00.000Z,99244
2018-12-15T15:50:00.000Z,99238
2018-12-15T15:55:00.000Z,99244
2018-12-15T16:00:00.000Z,99241
2018-12-15T16:05:00.000Z,99244
2018-12-15T16:10:00.000Z,99236
2018-12-15T16:15:00.000Z,99234
2018-12-15T16:20:00.000Z,99246
2018-12-15T16:25:00.000Z,99251
2018-12-15T16:30:00.000Z,99228
2018-12-15T16:35:00.000Z,99247
2018-12-15T16:40:00.000Z,99251
2018-12-15T16:45:00.000Z,99248
2018-12-15T16:50:00.000Z,99246
2018-12-15T16:55:00.000Z,99246
2018-12-15T17:00:00.000Z,99241
2018-12-15T17:05:00.000Z,99256
2018-12-15T17:10:00.000Z,99245
2018-12-15T17:15:00.000Z,99249
2018-12-15T17:20:00.000Z,99260
2018-12-15T17:25:00.000Z,99247
2018-12-15T17:30:00.000Z,99247
2018-12-15T17:35:00.000Z,99246
2018-12-15T17:40:00.000Z,99247
2018-12-15T17:46:00.000Z,99258
2018-12-15T17:51:00.000Z,99252
2018-12-15T17:56:00.000Z,99250
2018-12-15T18:01:00.000Z,99253
2018-12-15T18:06:00.000Z,99257
2018-12-15T18:11:00.000Z,99255
2018-12-15T18:16:00.000Z,99254
2018-12-15T18:21:00.000Z,99250
2018-12-15T18:26:00.000Z,99246
2018-12-15T18:31:00.000Z,99239
2018-12-15T18:36:00.000Z,99251
2018-12-15T18:41:00.000Z,99252
2018-12-15T18:46:00.000Z,99240
2018-12-15T18:51:00.000Z,99236
2018-12-15T18:56:00.000Z,99233
2018-12-15T19:01:00.000Z,99244
2018-12-15T19:06:00.000Z,99233
2018-12-15T19:11:00.000Z,99226
2018-12-15T19:16:00.000Z,99224
2018-12-15T19:21:00.000Z,99226
2018-12-15T19:26:00.000Z,99225
2018-12-15T19:31:00.000Z,99225
2018-12-15T19:36:00.000Z,99217
2018-12-15T19:41:00.000Z,99217
2018-12-15T19:46:00.000Z,99207
2018-12-15T19:51:00.000Z,99209
2018-12-15T19:56:00.000Z,99208
2018-12-15T20:01:00.000Z,99204
2018-12-15T20:06:00.000Z,99202
2018-12-15T20:11:00.000Z,99205
2018-12-15T20:16:00.000Z,99209
2018-12-15T20:21:00.000Z,99197
2018-12-15T20:26:00.000Z,99191
2018-12-15T20:31:00.000Z,99181
2018-12-15T20:36:00.000Z,99177
2018-12-15T20:41:00.000Z,99187
2018-12-15T20:46:00.000Z,99177
2018-12-15T20:51:00.000Z,99171
2018-12-15T20:56:00.000Z,99179
2018-12-15T21:01:00.000Z,99177
2018-12-15T21:06:00.000Z,99173
2018-12-15T21:11:00.000Z,99179
2018-12-15T21:16:00.000Z,99178
2018-12-15T21:21:00.000Z,99177
2018-12-15T21:26:00.000Z,99185
2018-12-15T21:31:00.000Z,99167
2018-12-15T21:36:00.000Z,99158
2018-12-15T21:41:00.000Z,99167
2018-12-15T21:46:00.000Z,99155
2018-12-15T21:51:00.000Z,99147
2018-12-15T21:57:00.000Z,99141
2018-12-15T22:02:00.000Z,99132
2018-12-15T22:07:00.000Z,99110
2018-12-15T22:12:00.000Z,99108
2018-12-15T22:17:00.000Z,99105
2018-12-15T22:22:00.000Z,99106
2018-12-15T22:27:00.000Z,99108
2018-12-15T22:32:00.000Z,99103
2018-12-15T22:37:00.000Z,99094
2018-12-15T22:42:00.000Z,99088
2018-12-15T22:47:00.000Z,99091
2018-12-15T22:52:00.000Z,99088
2018-12-15T22:57:00.000Z,99085
2018-12-15T23:02:00.000Z,99081
2018-12-15T23:07:00.000Z,99069
2018-12-15T23:12:00.000Z,99062
2018-12-15T23:17:00.000Z,99072
2018-12-15T23:22:00.000Z,99078
2018-12-15T23:27:00.000Z,99066
2018-12-15T23:32:00.000Z,99068
2018-12-15T23:37:00.000Z,99072
2018-12-15T23:42:00.000Z,99070
2018-12-15T23:47:00.000Z,99065
2018-12-15T23:52:00.000Z,99056
2018-12-15T23:57:00.000Z,99067
